KLTS/LTS METAR and TAF weather

Enter ICAO airport designator
Station Type Date Time Source
KLTS METAR 2022/06/27 07:56 UTC NOAA

KLTS 270756Z AUTO 02007KT 10SM CLR 17/10 A3025 RMK AO2 SLP231 T01680104 $


Station Type Date Time Source
KLTS Decoded METAR 2022/06/27 07:56 UTC NOAA

Altus Air Force Base, OK, United States (KLTS) 34-39N 099-16W 420M
Jun 27, 2022 - 03:56 AM EDT / 2022.06.27 0756 UTC
Wind: from the NNE (020 degrees) at 8 MPH (7 KT):0
Visibility: 10 mile(s):0
Sky conditions: clear
Temperature: 62.2 F (16.8 C)
Dew Point: 50.7 F (10.4 C)
Relative Humidity: 65%
Pressure (altimeter): 30.25 in. Hg (1024 hPa)
ob: KLTS 270756Z AUTO 02007KT 10SM CLR 17/10 A3025 RMK AO2 SLP231 T01680104
cycle: 8

Station Type Date Time Source
KLTS TAF 2022/06/25 07:46 UTC NOAA

TAF
AMD KLTS 250730Z 2507/2607 17012KT 9999 SKC WS020/19043KT QNH2980INS
BECMG 2514/2515 19015G25KT 9999 SKC QNH2978INS
BECMG 2600/2601 16012KT 9999 SKC QNH2980INS TX41/2521Z TN24/2511Z LAST NO
AMDS AFT 2507 NEXT 2709

Example: see airport list